Weather History for KLVN - October, 2012

Change the Weather History Date:

Monday, October 8, 2012

  Actual Average Record
Temperature  
Mean Temperature 50 °F -  
Max Temperature 64 °F 61 °F 84 °F (2003)
Min Temperature 37 °F 40 °F 23 °F (1976)
Degree Days  
Heating Degree Days 14    
Moisture  
Dew Point 31 °F    
Average Humidity 52    
Maximum Humidity 66    
Minimum Humidity 30    
Precipitation  
Precipitation 0.00 in - - ()
Sea Level Pressure  
Sea Level Pressure 29.73 in    
Wind  
Wind Speed 9 mph (SSW)    
Max Wind Speed 16 mph    
Max Gust Speed 25 mph    
Visibility 10 miles    
Events      
Averages and records for this station are not official NWS values.
T = Trace of Precipitation, MM = Missing Value Source: NWS Daily Summary

Daily Weather History Graph

Daily Weather History Graph

Search for Another Location

Airport or City:

Trip Planner

Search our weather history database for the weather conditions in past years. The results will help you decide how hot, cold, wet, or windy it might be!

Date:

Astronomy

Oct. 08, 2012 Rise Set
Actual Time 7:20 AM CDT 6:39 PM CDT
Civil Twilight 6:50 AM CDT 7:08 PM CDT
Nautical Twilight 6:17 AM CDT 7:42 PM CDT
Astronomical Twilight 5:43 AM CDT 8:16 PM CDT
Moon No Moon Rise 2:44 PM CDT (10/8)
Length of Visible Light 12h 18m
Length of Day
11h 19m
Last Quarter, 46% of the Moon is Illuminated
Oct 8
Last Quarter
Oct 15
New
Oct 21
First Quarter
Oct 29
Full
Nov 6
Last Quarter

Hourly Weather History & Observations

Time (CDT) Temp. Windchill Dew Point Humidity Pressure Visibility Wind Dir Wind Speed Gust Speed Precip Events Conditions
12:13 AM 39.2 °F 33.0 °F 23.0 °F 52% 29.88 in 10.0 mi South 9.2 mph - N/A   Clear
12:33 AM 39.2 °F 33.0 °F 23.0 °F 52% 29.88 in 10.0 mi South 9.2 mph - N/A   Clear
12:53 AM 39.2 °F 33.6 °F 23.0 °F 52% 29.87 in 10.0 mi South 8.1 mph - N/A   Clear
1:13 AM 39.2 °F 33.6 °F 23.0 °F 52% 29.87 in 10.0 mi South 8.1 mph - N/A   Clear
1:33 AM 39.2 °F 35.0 °F 24.8 °F 56% 29.86 in 10.0 mi South 5.8 mph - N/A   Clear
1:53 AM 37.4 °F 32.8 °F 24.8 °F 60% 29.86 in 10.0 mi SSW 5.8 mph - N/A   Clear
2:13 AM 37.4 °F 32.8 °F 24.8 °F 60% 29.86 in 10.0 mi SSW 5.8 mph - N/A   Clear
2:33 AM 37.4 °F 33.8 °F 24.8 °F 60% 29.86 in 10.0 mi SSW 4.6 mph - N/A   Clear
2:53 AM 39.2 °F 34.2 °F 24.8 °F 56% 29.85 in 10.0 mi SSW 6.9 mph - N/A   Clear
3:13 AM 39.2 °F 33.0 °F 24.8 °F 56% 29.84 in 10.0 mi South 9.2 mph - N/A   Clear
3:33 AM 39.2 °F 33.6 °F 24.8 °F 56% 29.83 in 10.0 mi SSW 8.1 mph - N/A   Clear
3:53 AM 39.2 °F 33.6 °F 24.8 °F 56% 29.83 in 10.0 mi South 8.1 mph - N/A   Clear
4:13 AM 39.2 °F 35.0 °F 26.6 °F 61% 29.82 in 10.0 mi SSW 5.8 mph - N/A   Clear
4:33 AM 39.2 °F 35.0 °F 26.6 °F 61% 29.82 in 10.0 mi SSW 5.8 mph - N/A   Clear
4:53 AM 39.2 °F 34.2 °F 26.6 °F 61% 29.82 in 10.0 mi SSW 6.9 mph - N/A   Clear
5:13 AM 39.2 °F 33.6 °F 26.6 °F 61% 29.82 in 10.0 mi South 8.1 mph - N/A   Clear
5:33 AM 37.4 °F 31.4 °F 26.6 °F 65% 29.81 in 10.0 mi South 8.1 mph - N/A   Clear
5:53 AM 37.4 °F 31.4 °F 26.6 °F 65% 29.81 in 10.0 mi South 8.1 mph - N/A   Clear
6:13 AM 37.4 °F 31.4 °F 26.6 °F 65% 29.80 in 10.0 mi South 8.1 mph - N/A   Clear
6:33 AM 37.4 °F 31.4 °F 26.6 °F 65% 29.80 in 10.0 mi South 8.1 mph - N/A   Clear
6:53 AM 39.2 °F 33.0 °F 26.6 °F 61% 29.79 in 10.0 mi South 9.2 mph - N/A   Clear
7:13 AM 39.2 °F 34.2 °F 28.4 °F 65% 29.79 in 10.0 mi South 6.9 mph - N/A   Scattered Clouds
7:33 AM 39.2 °F 33.6 °F 28.4 °F 65% 29.79 in 10.0 mi South 8.1 mph - N/A   Mostly Cloudy
7:53 AM 39.2 °F 33.0 °F 28.4 °F 65% 29.78 in 7.0 mi SSW 9.2 mph - N/A   Overcast
8:13 AM 41.0 °F 35.2 °F 28.4 °F 61% 29.77 in 10.0 mi South 9.2 mph - N/A   Overcast
8:33 AM 41.0 °F 35.2 °F 28.4 °F 61% 29.77 in 10.0 mi South 9.2 mph - N/A   Overcast
8:53 AM 42.8 °F 38.6 °F 30.2 °F 61% 29.77 in 10.0 mi South 6.9 mph - N/A   Overcast
9:13 AM 42.8 °F 37.5 °F 30.2 °F 61% 29.77 in 10.0 mi South 9.2 mph - N/A   Overcast
9:33 AM 42.8 °F 36.6 °F 30.2 °F 61% 29.77 in 10.0 mi South 11.5 mph - N/A   Overcast
9:53 AM 44.6 °F 39.7 °F 30.2 °F 57% 29.76 in 7.0 mi South 9.2 mph 16.1 mph N/A   Mostly Cloudy
10:13 AM 46.4 °F 40.4 °F 30.2 °F 53% 29.75 in 10.0 mi SSW 13.8 mph 18.4 mph N/A   Scattered Clouds
10:33 AM 46.4 °F 40.4 °F 30.2 °F 53% 29.75 in 5.0 mi South 13.8 mph 18.4 mph N/A   Haze
10:53 AM 48.2 °F - 32.0 °F 54% 29.74 in 10.0 mi SSW 12.7 mph 19.6 mph N/A   Scattered Clouds
11:13 AM 48.2 °F - 32.0 °F 54% 29.72 in 10.0 mi South 11.5 mph - N/A   Clear
11:33 AM 51.8 °F - 32.0 °F 47% 29.72 in 10.0 mi SSW 9.2 mph 12.7 mph N/A   Clear
11:53 AM 51.8 °F - 33.8 °F 50% 29.71 in 10.0 mi SSW 10.4 mph 16.1 mph N/A   Mostly Cloudy
12:12 PM 53.6 °F - 33.8 °F 47% 29.70 in 7.0 mi South 9.2 mph 18.4 mph N/A   Mostly Cloudy
12:53 PM 57.2 °F - 33.8 °F 41% 29.67 in 10.0 mi South 13.8 mph 23.0 mph N/A   Scattered Clouds
1:12 PM 55.4 °F - 33.8 °F 44% 29.66 in 7.0 mi South 13.8 mph 18.4 mph N/A   Scattered Clouds
1:33 PM 57.2 °F - 33.8 °F 41% 29.64 in 7.0 mi South 15.0 mph 24.2 mph N/A   Mostly Cloudy
1:53 PM 57.2 °F - 33.8 °F 41% 29.64 in 7.0 mi South 11.5 mph 24.2 mph N/A   Scattered Clouds
2:12 PM 57.2 °F - 33.8 °F 41% 29.63 in 10.0 mi South 15.0 mph 19.6 mph N/A   Mostly Cloudy
2:33 PM 57.2 °F - 33.8 °F 41% 29.63 in 10.0 mi South 11.5 mph 18.4 mph N/A   Mostly Cloudy
2:53 PM 59.0 °F - 33.8 °F 39% 29.63 in 5.0 mi South 10.4 mph 18.4 mph N/A   Haze
3:12 PM 60.8 °F - 33.8 °F 36% 29.61 in 7.0 mi South 16.1 mph 24.2 mph N/A   Mostly Cloudy
3:33 PM 62.6 °F - 33.8 °F 34% 29.59 in 10.0 mi SSW 13.8 mph 24.2 mph N/A   Scattered Clouds
3:53 PM 62.6 °F - 33.8 °F 34% 29.60 in 10.0 mi SSW 13.8 mph 25.3 mph N/A   Scattered Clouds
4:12 PM 62.6 °F - 33.8 °F 34% 29.60 in 10.0 mi SW 9.2 mph 17.3 mph N/A   Mostly Cloudy
4:33 PM 62.6 °F - 32.0 °F 32% 29.60 in 10.0 mi SW 6.9 mph - N/A   Mostly Cloudy
4:53 PM 64.4 °F - 32.0 °F 30% 29.60 in 7.0 mi SW 4.6 mph - N/A   Mostly Cloudy
5:12 PM 64.4 °F - 32.0 °F 30% 29.60 in 10.0 mi WSW 4.6 mph - N/A   Overcast
5:33 PM 64.4 °F - 32.0 °F 30% 29.60 in 7.0 mi WSW 6.9 mph - N/A   Overcast
5:53 PM 64.4 °F - 33.8 °F 32% 29.61 in 10.0 mi West 10.4 mph 17.3 mph N/A   Overcast
6:13 PM 62.6 °F - 33.8 °F 34% 29.62 in 10.0 mi WSW 9.2 mph 17.3 mph N/A   Mostly Cloudy
6:33 PM 62.6 °F - 35.6 °F 37% 29.63 in 10.0 mi West 11.5 mph 19.6 mph N/A   Mostly Cloudy
6:53 PM 62.6 °F - 39.2 °F 42% 29.64 in 10.0 mi West 10.4 mph 17.3 mph N/A   Overcast
7:13 PM 60.8 °F - 39.2 °F 45% 29.65 in 10.0 mi West 9.2 mph 18.4 mph N/A   Overcast
7:33 PM 59.0 °F - 39.2 °F 48% 29.65 in 10.0 mi West 9.2 mph - N/A   Scattered Clouds
7:53 PM 57.2 °F - 39.2 °F 51% 29.66 in 10.0 mi West 8.1 mph - N/A   Clear
8:13 PM 57.2 °F - 39.2 °F 51% 29.67 in 10.0 mi WNW 16.1 mph 20.7 mph N/A   Clear
8:33 PM 55.4 °F - 39.2 °F 54% 29.68 in 10.0 mi WNW 11.5 mph 16.1 mph N/A   Clear
8:53 PM 55.4 °F - 39.2 °F 54% 29.69 in 10.0 mi WNW 10.4 mph - N/A   Clear
9:13 PM 55.4 °F - 39.2 °F 54% 29.70 in 10.0 mi WNW 10.4 mph 16.1 mph N/A   Clear
9:33 PM 55.4 °F - 39.2 °F 54% 29.71 in 10.0 mi WNW 10.4 mph - N/A   Clear
9:53 PM 55.4 °F - 39.2 °F 54% 29.72 in 10.0 mi NW 15.0 mph 18.4 mph N/A   Mostly Cloudy
10:13 PM 53.6 °F - 39.2 °F 58% 29.74 in 10.0 mi NW 10.4 mph 18.4 mph N/A   Mostly Cloudy
10:53 PM 51.8 °F - 39.2 °F 62% 29.75 in 10.0 mi Calm Calm - N/A   Unknown
11:13 PM 50.0 °F - 37.4 °F 62% 29.75 in 10.0 mi West 3.5 mph - N/A   Unknown
11:33 PM 50.0 °F - 37.4 °F 62% 29.75 in 10.0 mi Calm Calm - N/A   Clear
11:53 PM 48.2 °F - 37.4 °F 66% 29.75 in 10.0 mi Calm Calm - N/A   Clear